Time;durP1;ratioP1;P1;durP2;ratioP2;P2;SDS_P1;SDS_P2;PMS_P1;PMS_P2;Temp;Humidity;BMP_temperature;BMP_pressure;BME280_temperature;BME280_humidity;BME280_pressure;Samples;Min_cycle;Max_cycle;Signal;HPM_P1;HPM_P2
2023/07/30 00:01:38;;;;;;;2.28;2.00;;;;;;;-145.68;100.00;73000.13;10214695;29;20246;-67
2023/07/30 00:06:38;;;;;;;4.80;2.20;;;;;;;-145.68;100.00;72992.13;10214652;29;20300;-67
2023/07/30 00:11:39;;;;;;;3.55;1.98;;;;;;;-145.68;100.00;72992.13;10215102;29;20227;-67
2023/07/30 00:16:39;;;;;;;3.17;2.20;;;;;;;-145.68;100.00;73002.13;10214475;29;20224;-67
2023/07/30 00:21:39;;;;;;;7.43;2.45;;;;;;;-145.68;100.00;73004.13;10214301;29;20327;-67
2023/07/30 00:26:40;;;;;;;2.30;2.10;;;;;;;-145.68;100.00;73014.13;10214322;29;20216;-67
2023/07/30 00:31:40;;;;;;;2.55;2.35;;;;;;;-145.68;100.00;73014.13;10213101;29;20232;-67
2023/07/30 00:36:41;;;;;;;3.92;2.70;;;;;;;-145.68;100.00;73010.13;10212991;29;20690;-67
2023/07/30 00:41:41;;;;;;;5.28;2.53;;;;;;;-145.68;100.00;73036.09;10213288;29;20306;-67
2023/07/30 00:46:42;;;;;;;3.55;2.10;;;;;;;-145.68;100.00;73032.09;10213970;29;20640;-67
2023/07/30 00:51:42;;;;;;;3.90;2.92;;;;;;;-145.68;100.00;73028.09;10213601;29;20299;-67
2023/07/30 00:56:49;;;;;;;2.58;1.98;;;;;;;-145.68;100.00;73048.09;10212644;29;20425;-67
2023/07/30 01:01:51;;;;;;;3.45;2.17;;;;;;;-145.68;100.00;73070.06;10196287;29;20228;-67
2023/07/30 01:06:51;;;;;;;5.05;1.85;;;;;;;-145.68;100.00;73080.06;10213115;29;20215;-67
2023/07/30 01:11:53;;;;;;;2.47;2.28;;;;;;;-145.68;100.00;73092.06;10212156;29;20236;-67
2023/07/30 01:16:54;;;;;;;3.15;2.85;;;;;;;-145.68;100.00;73100.06;10212655;29;20200;-67
2023/07/30 01:21:54;;;;;;;3.53;2.55;;;;;;;-145.68;100.00;73114.03;10211776;29;20228;-67
2023/07/30 01:27:07;;;;;;;2.38;2.17;;;;;;;-145.68;100.00;73120.03;10212365;29;20219;-67
2023/07/30 01:32:08;;;;;;;2.97;2.15;;;;;;;-145.68;100.00;73120.03;10212215;29;20235;-67
2023/07/30 01:37:12;;;;;;;2.60;2.40;;;;;;;-145.68;100.00;73110.06;10194090;29;20216;-67
2023/07/30 01:42:12;;;;;;;6.38;2.65;;;;;;;-145.68;100.00;73106.06;10193688;29;20301;-67
2023/07/30 01:47:13;;;;;;;7.20;2.33;;;;;;;-145.68;100.00;73100.06;10209687;29;20243;-67
2023/07/30 01:52:13;;;;;;;4.40;2.60;;;;;;;-145.68;100.00;73100.06;10211350;29;20231;-67
2023/07/30 01:57:13;;;;;;;2.78;2.47;;;;;;;-145.68;100.00;73094.06;10211646;29;20647;-67
2023/07/30 02:02:14;;;;;;;4.25;2.50;;;;;;;-145.68;100.00;73084.06;10193382;29;20326;-67
2023/07/30 02:07:14;;;;;;;2.80;2.40;;;;;;;-145.68;100.00;73068.06;10210470;29;20696;-67
2023/07/30 02:12:14;;;;;;;5.13;2.28;;;;;;;-145.68;100.00;73058.09;10210915;29;20649;-67
2023/07/30 02:17:15;;;;;;;4.35;2.47;;;;;;;-145.68;100.00;73032.09;10193682;29;20212;-67
2023/07/30 02:22:16;;;;;;;2.85;2.60;;;;;;;-145.68;100.00;73028.09;10193232;29;20246;-67
2023/07/30 02:27:16;;;;;;;2.65;2.40;;;;;;;-145.68;100.00;73020.13;10210263;29;20306;-67
2023/07/30 02:32:16;;;;;;;3.63;2.28;;;;;;;-145.68;100.00;72976.16;10205287;29;20224;-67
2023/07/30 02:37:17;;;;;;;2.35;2.03;;;;;;;-145.68;100.00;72968.16;10207159;29;20218;-67
2023/07/30 02:42:17;;;;;;;5.28;2.70;;;;;;;-145.68;100.00;72988.13;10206711;29;20242;-67
2023/07/30 02:47:17;;;;;;;3.08;2.13;;;;;;;-145.68;100.00;72986.13;10222420;29;20212;-67
2023/07/30 02:52:18;;;;;;;4.25;2.33;;;;;;;-145.68;100.00;72990.13;10223275;29;20660;-67
2023/07/30 02:57:18;;;;;;;3.03;1.98;;;;;;;-145.68;100.00;73004.13;10223166;29;20590;-67
2023/07/30 03:02:19;;;;;;;3.28;2.00;;;;;;;-145.68;100.00;73012.13;10222084;29;20326;-67
2023/07/30 03:07:19;;;;;;;3.05;2.30;;;;;;;-145.68;100.00;73010.13;10205943;29;20211;-67
2023/07/30 03:12:20;;;;;;;2.83;2.55;;;;;;;-145.68;100.00;73020.13;10205847;29;20228;-68
2023/07/30 03:17:20;;;;;;;3.25;2.10;;;;;;;-145.68;100.00;73010.13;10222297;29;20207;-67
2023/07/30 03:22:20;;;;;;;3.60;2.38;;;;;;;-145.68;100.00;73024.13;10222010;29;20243;-67
2023/07/30 03:27:21;;;;;;;3.00;2.28;;;;;;;-145.68;100.00;73040.09;10222785;29;20208;-68
2023/07/30 03:32:22;;;;;;;3.35;2.17;;;;;;;-145.68;100.00;73052.09;10204156;29;20585;-68
2023/07/30 03:37:23;;;;;;;4.63;2.17;;;;;;;-145.68;100.00;73048.09;10221694;29;20212;-68
2023/07/30 03:42:23;;;;;;;2.58;2.28;;;;;;;-145.68;100.00;73052.09;10216707;29;20242;-68
2023/07/30 03:47:23;;;;;;;2.50;2.30;;;;;;;-145.68;100.00;73034.09;10216077;29;20215;-68
2023/07/30 03:52:24;;;;;;;2.70;2.28;;;;;;;-145.68;100.00;73034.09;10215421;29;20242;-68
2023/07/30 03:57:24;;;;;;;5.80;2.25;;;;;;;-145.68;100.00;73038.09;10214717;29;20212;-68
2023/07/30 04:02:24;;;;;;;4.82;2.38;;;;;;;-145.68;100.00;73044.09;10215603;29;20235;-68
2023/07/30 04:07:25;;;;;;;4.70;2.10;;;;;;;-145.68;100.00;73048.09;10215341;29;20249;-68
2023/07/30 04:12:26;;;;;;;3.20;2.65;;;;;;;-145.68;100.00;73040.09;10197553;29;20319;-68
2023/07/30 04:17:27;;;;;;;3.05;2.13;;;;;;;-145.68;100.00;73032.09;10198038;29;20234;-68
2023/07/30 04:22:27;;;;;;;2.33;2.13;;;;;;;-145.68;100.00;73032.09;10214930;29;20228;-67
2023/07/30 04:27:28;;;;;;;2.15;2.00;;;;;;;-145.68;100.00;73036.09;10214395;29;20690;-68
2023/07/30 04:32:28;;;;;;;2.67;2.42;;;;;;;-145.68;100.00;73042.09;10197169;29;20258;-68
2023/07/30 04:37:29;;;;;;;2.63;2.20;;;;;;;-145.68;100.00;73028.09;10196375;29;20216;-68
2023/07/30 04:42:30;;;;;;;3.85;2.15;;;;;;;-145.68;100.00;73002.13;10197099;29;20646;-67
2023/07/30 04:47:30;;;;;;;4.18;2.35;;;;;;;-145.68;100.00;72980.13;10212640;29;20303;-67
2023/07/30 04:52:31;;;;;;;3.97;2.00;;;;;;;-145.68;100.00;72968.16;10232930;23;20251;-67
2023/07/30 04:57:32;;;;;;;3.75;2.20;;;;;;;-145.68;100.00;72934.19;10252443;29;20203;-70
2023/07/30 05:02:32;;;;;;;3.22;1.85;;;;;;;-145.68;100.00;72904.19;10229634;29;20322;-69
2023/07/30 05:07:32;;;;;;;4.72;2.33;;;;;;;-145.68;100.00;72872.22;10212799;29;20206;-68
2023/07/30 05:12:33;;;;;;;2.20;1.95;;;;;;;-145.68;100.00;72828.25;10212747;29;20248;-66
2023/07/30 05:17:33;;;;;;;3.67;1.83;;;;;;;-145.68;100.00;72816.25;10247146;29;20211;-66
2023/07/30 05:22:34;;;;;;;3.15;1.85;;;;;;;-145.68;100.00;72788.28;10251921;29;20242;-69
2023/07/30 05:27:35;;;;;;;2.78;1.98;;;;;;;-145.68;100.00;72748.31;10252119;29;20215;-69
2023/07/30 05:32:36;;;;;;;3.42;1.77;;;;;;;-145.68;100.00;72712.34;10212820;29;20710;-70
2023/07/30 05:37:36;;;;;;;3.80;2.10;;;;;;;-145.68;98.97;72646.41;10224243;28;20303;-69
2023/07/30 05:42:37;;;;;;;3.10;1.92;;;;;;;-145.68;90.53;72568.47;10221029;29;20246;-69
2023/07/30 05:47:37;;;;;;;6.00;2.22;;;;;;;-145.68;84.98;72522.50;10215220;29;20682;-69
2023/07/30 05:52:38;;;;;;;4.85;2.40;;;;;;;-145.68;81.94;72520.50;10211449;29;20247;-70
2023/07/30 05:57:38;;;;;;;2.15;1.92;;;;;;;-145.68;83.13;72502.53;10211381;29;20308;-67
2023/07/30 06:02:38;;;;;;;2.75;2.17;;;;;;;-145.68;81.53;72484.53;10209571;29;20303;-67
2023/07/30 06:07:39;;;;;;;3.45;2.05;;;;;;;-145.68;81.76;72488.53;10210986;29;20204;-67
2023/07/30 06:12:39;;;;;;;3.92;2.30;;;;;;;-145.68;81.19;72504.53;10210862;29;20240;-69
2023/07/30 06:17:39;;;;;;;2.65;2.38;;;;;;;-145.68;84.05;72546.47;10210663;29;20214;-69
2023/07/30 06:22:40;;;;;;;3.45;2.03;;;;;;;-145.68;84.07;72572.47;10210651;29;20231;-67
2023/07/30 06:27:40;;;;;;;4.20;2.25;;;;;;;-145.68;87.50;72608.44;10210473;29;20747;-68
2023/07/30 06:32:40;;;;;;;3.92;2.38;;;;;;;-145.68;87.57;72590.44;10210341;29;20614;-69
2023/07/30 06:37:41;;;;;;;2.80;2.33;;;;;;;-145.68;86.60;72610.44;10210400;29;20912;-68
2023/07/30 06:42:41;;;;;;;2.63;2.42;;;;;;;-145.68;88.36;72608.44;10210277;29;20616;-68
2023/07/30 06:47:42;;;;;;;3.53;2.63;;;;;;;-145.68;89.64;72624.41;10210190;29;20294;-68
2023/07/30 06:52:42;;;;;;;4.18;2.67;;;;;;;-145.68;96.13;72652.41;10209914;29;20231;-68
2023/07/30 06:57:42;;;;;;;6.82;2.50;;;;;;;-145.68;98.15;72674.38;10210273;29;20223;-67
2023/07/30 07:02:43;;;;;;;3.22;2.92;;;;;;;-145.68;98.21;72652.41;10209774;29;20239;-68
2023/07/30 07:07:43;;;;;;;2.80;2.20;;;;;;;-145.68;97.16;72642.41;10209939;29;20303;-68
2023/07/30 07:12:44;;;;;;;5.30;2.38;;;;;;;-145.68;95.71;72660.38;10209542;29;20243;-68
2023/07/30 07:17:44;;;;;;;4.25;2.60;;;;;;;-145.68;93.57;72626.41;10215840;29;20302;-68
2023/07/30 07:22:44;;;;;;;5.85;2.15;;;;;;;-145.68;89.58;72586.44;10217045;29;20398;-68
2023/07/30 07:27:45;;;;;;;5.30;2.58;;;;;;;-145.68;93.34;72618.44;10216815;29;20234;-69
2023/07/30 07:32:50;;;;;;;2.95;2.40;;;;;;;-145.68;94.37;72624.41;10216793;29;20232;-70
2023/07/30 07:37:50;;;;;;;5.15;2.30;;;;;;;-145.68;86.95;72566.47;10216378;29;20598;-69
2023/07/30 07:42:50;;;;;;;5.57;2.20;;;;;;;-145.68;79.29;72476.53;10216388;29;20232;-68
2023/07/30 07:47:51;;;;;;;3.63;2.58;;;;;;;-145.68;75.51;72404.59;10216123;29;20291;-70
2023/07/30 07:52:51;;;;;;;4.18;2.30;;;;;;;-145.68;69.18;72420.59;10215719;29;20242;-68
2023/07/30 07:57:51;;;;;;;5.72;2.10;;;;;;;-145.68;69.16;72384.63;10215950;29;20216;-67
2023/07/30 08:02:52;;;;;;;6.35;2.17;;;;;;;-145.68;69.53;72414.59;10215400;29;20224;-68
2023/07/30 08:07:52;;;;;;;2.65;2.00;;;;;;;-145.68;66.55;72300.69;10249759;28;20218;-68
2023/07/30 08:12:52;;;;;;;2.40;2.00;;;;;;;-145.68;64.14;72292.72;10254548;29;20235;-68
2023/07/30 08:17:53;;;;;;;2.95;2.22;;;;;;;-145.68;70.69;72522.50;10254502;29;20222;-68
2023/07/30 08:22:53;;;;;;;3.25;2.95;;;;;;;-145.68;70.12;72412.59;10254141;29;20247;-69
2023/07/30 08:27:53;;;;;;;4.13;2.92;;;;;;;-145.68;69.30;72432.59;10253514;28;20210;-68
2023/07/30 08:32:54;;;;;;;3.95;2.90;;;;;;;-145.68;70.81;72400.59;10254153;28;20231;-68
2023/07/30 08:37:54;;;;;;;3.55;2.67;;;;;;;-145.68;68.93;72414.59;10253704;29;20215;-68
2023/07/30 08:42:55;;;;;;;3.30;3.00;;;;;;;-145.68;65.12;72312.69;10253853;29;20705;-69
2023/07/30 08:47:55;;;;;;;4.80;2.70;;;;;;;-145.68;62.35;72252.75;10253296;29;20743;-69
2023/07/30 08:52:56;;;;;;;2.47;2.28;;;;;;;-145.68;63.72;72326.69;10253119;29;20231;-68
2023/07/30 08:57:58;;;;;;;2.45;1.90;;;;;;;-145.68;62.11;72290.72;10236023;29;20226;-68
2023/07/30 09:03:00;;;;;;;6.88;2.33;;;;;;;-145.68;64.01;72352.66;10235472;29;20633;-67
2023/07/30 09:08:00;;;;;;;4.20;1.90;;;;;;;-145.68;64.03;72310.69;10252797;29;20745;-68
2023/07/30 09:13:01;;;;;;;3.20;2.03;;;;;;;-145.68;64.43;72404.59;10252221;29;20239;-68
2023/07/30 09:18:02;;;;;;;2.00;1.80;;;;;;;-145.68;62.11;72282.72;10252302;29;20213;-69
2023/07/30 09:23:02;;;;;;;2.75;2.03;;;;;;;-145.68;57.30;72110.88;10251954;29;20242;-70
2023/07/30 09:28:03;;;;;;;2.05;1.85;;;;;;;-145.68;58.47;72186.81;10251915;29;20207;-69
2023/07/30 09:33:03;;;;;;;3.78;1.92;;;;;;;-145.68;57.09;72124.88;10251589;29;20238;-68
2023/07/30 09:38:04;;;;;;;2.80;2.03;;;;;;;-145.68;55.65;72188.81;10250651;28;20213;-68
2023/07/30 09:43:04;;;;;;;4.63;2.35;;;;;;;-145.68;56.46;72128.84;10251569;29;20688;-70
2023/07/30 09:48:05;;;;;;;3.20;1.80;;;;;;;-145.68;54.19;72060.94;10251216;29;20567;-68
2023/07/30 09:53:07;;;;;;;3.50;2.30;;;;;;;-145.68;57.34;72248.75;10251066;29;20247;-67
2023/07/30 09:58:10;;;;;;;3.45;1.85;;;;;;;-145.68;55.91;72170.81;10233877;29;20211;-66
2023/07/30 10:03:12;;;;;;;1.70;1.55;;;;;;;-145.68;55.18;72058.94;10234135;29;20238;-68
2023/07/30 10:08:17;;;;;;;1.92;1.70;;;;;;;-145.68;54.93;72090.91;10234112;29;20223;-67
2023/07/30 10:13:19;;;;;;;1.60;1.50;;;;;;;-145.68;51.24;71953.03;10233391;29;20709;-68
2023/07/30 10:18:21;;;;;;;5.10;1.63;;;;;;;-145.68;52.19;71943.03;10250555;29;20223;-66
2023/07/30 10:23:21;;;;;;;2.72;1.48;;;;;;;-145.68;54.41;72108.88;10250425;29;20234;-67
2023/07/30 10:28:33;;;;;;;1.73;1.63;;;;;;;-145.68;52.81;72044.94;10233259;29;20203;-68
2023/07/30 10:33:43;;;;;;;1.77;1.67;;;;;;;-145.68;54.38;72150.84;10250091;29;20260;-67
2023/07/30 10:38:44;;;;;;;2.08;1.65;;;;;;;-145.68;52.44;72068.91;10232923;29;20234;-66
2023/07/30 10:43:49;;;;;;;2.72;1.73;;;;;;;-145.68;59.47;72268.72;10249989;29;20223;-67
2023/07/30 10:48:49;;;;;;;4.47;1.88;;;;;;;-145.68;63.16;72374.63;10250158;28;20227;-69
2023/07/30 10:53:50;;;;;;;4.85;2.10;;;;;;;-145.68;61.80;72296.69;10277347;23;20249;-68
2023/07/30 10:58:52;;;;;;;2.55;2.15;;;;;;;-145.68;59.94;72334.66;10257572;29;20215;-66
2023/07/30 11:03:53;;;;;;;3.58;3.28;;;;;;;-145.68;56.51;72156.84;10233483;29;20232;-69
2023/07/30 11:08:53;;;;;;;2.20;1.98;;;;;;;-145.68;52.79;72092.91;10217775;29;20573;-67
2023/07/30 11:13:54;;;;;;;1.67;1.15;;;;;;;-145.68;47.02;71825.16;10217546;29;20235;-68
2023/07/30 11:18:54;;;;;;;2.38;1.40;;;;;;;-145.68;45.42;71907.06;10217458;29;20204;-67
2023/07/30 11:23:54;;;;;;;1.20;1.17;;;;;;;-145.68;44.66;71781.19;10217031;29;20246;-67
2023/07/30 11:28:56;;;;;;;1.40;1.20;;;;;;;-145.68;44.27;71719.25;10216963;29;20294;-67
2023/07/30 11:33:56;;;;;;;1.25;1.10;;;;;;;-145.68;43.36;71661.31;10216599;29;20741;-66
2023/07/30 11:38:57;;;;;;;1.67;1.10;;;;;;;-145.68;43.12;71755.22;10199708;29;20267;-67
2023/07/30 11:43:57;;;;;;;1.25;1.00;;;;;;;-145.68;43.55;71751.22;10216106;29;20726;-68
2023/07/30 11:49:21;;;;;;;0.80;0.80;;;;;;;-145.68;42.27;71781.19;10216427;29;20682;-68
2023/07/30 11:54:25;;;;;;;0.95;0.95;;;;;;;-145.68;40.56;71577.41;10215833;29;20998;-67
2023/07/30 11:59:26;;;;;;;1.02;0.80;;;;;;;-145.68;40.92;71569.44;10215972;29;20267;-68
2023/07/30 12:04:30;;;;;;;1.25;1.15;;;;;;;-145.68;41.76;71627.38;10214390;29;20785;-68
2023/07/30 12:09:35;;;;;;;1.40;1.00;;;;;;;-145.68;40.81;71649.34;10215740;29;20259;-67
2023/07/30 12:14:53;;;;;;;0.85;0.80;;;;;;;-145.68;41.23;71601.41;10215137;29;20236;-67
2023/07/30 12:19:53;;;;;;;1.23;1.17;;;;;;;-145.68;40.41;71633.34;10215285;29;20698;-69
2023/07/30 12:24:54;;;;;;;0.90;0.90;;;;;;;-145.68;39.44;71629.38;10214742;29;20318;-67
2023/07/30 12:29:54;;;;;;;1.80;0.93;;;;;;;-145.68;43.26;71939.03;10214828;29;20216;-68
2023/07/30 12:34:55;;;;;;;2.53;1.10;;;;;;;-145.68;42.06;71625.38;10214494;29;20247;-67
2023/07/30 12:39:55;;;;;;;3.92;1.20;;;;;;;-145.68;41.94;71741.25;10214211;29;20283;-67
2023/07/30 12:44:55;;;;;;;0.97;0.97;;;;;;;-145.68;40.25;71671.31;10214357;29;20258;-67
2023/07/30 12:49:56;;;;;;;0.90;0.90;;;;;;;-145.68;39.66;71611.38;10213752;29;20459;-69
2023/07/30 12:54:56;;;;;;;1.07;0.83;;;;;;;-145.68;41.05;71749.22;10213753;29;20323;-68
2023/07/30 12:59:57;;;;;;;0.80;0.80;;;;;;;-145.68;42.93;71929.06;10213648;29;20463;-67
2023/07/30 13:04:57;;;;;;;1.08;1.00;;;;;;;-145.68;43.18;71941.03;10213084;29;20610;-69
2023/07/30 13:10:07;;;;;;;1.13;0.80;;;;;;;-145.68;42.00;71699.28;10213447;29;20287;-70
2023/07/30 13:15:08;;;;;;;0.95;0.85;;;;;;;-145.68;42.52;72000.97;10212457;29;20299;-67
2023/07/30 13:20:09;;;;;;;2.47;0.88;;;;;;;-145.68;43.47;71917.06;10213066;29;20255;-69
2023/07/30 13:25:09;;;;;;;3.00;0.90;;;;;;;-145.68;41.31;71789.19;10212684;29;20235;-68
2023/07/30 13:30:10;;;;;;;0.80;0.80;;;;;;;-145.68;42.54;71873.09;10212314;29;20310;-69
2023/07/30 13:35:10;;;;;;;1.20;1.00;;;;;;;-145.68;41.95;71845.13;10212357;29;20243;-68
2023/07/30 13:40:11;;;;;;;3.13;0.90;;;;;;;-145.68;41.01;71715.28;10211881;29;20203;-69
2023/07/30 13:45:11;;;;;;;1.35;0.95;;;;;;;-145.68;37.94;71469.53;10211933;29;20247;-69
2023/07/30 13:50:11;;;;;;;0.93;0.93;;;;;;;-145.68;37.18;71449.56;10211891;29;20249;-67
2023/07/30 13:55:12;;;;;;;1.00;1.00;;;;;;;-145.68;38.58;71709.28;10211346;29;20740;-67
2023/07/30 14:00:13;;;;;;;1.02;0.95;;;;;;;-145.68;39.16;71743.25;10211733;29;20963;-67
2023/07/30 14:05:13;;;;;;;1.10;1.00;;;;;;;-145.68;40.47;71889.09;10210964;29;20224;-67
2023/07/30 14:10:13;;;;;;;1.10;1.00;;;;;;;-145.68;41.74;71933.03;10211316;29;20211;-66
2023/07/30 14:15:14;;;;;;;1.10;1.00;;;;;;;-145.68;40.54;71841.13;10210613;29;20255;-67
2023/07/30 14:20:15;;;;;;;1.38;1.20;;;;;;;-145.68;39.92;71821.16;10211120;29;20337;-67
2023/07/30 14:25:15;;;;;;;1.50;1.23;;;;;;;-145.68;41.19;71791.19;10210048;29;20325;-67
2023/07/30 14:30:16;;;;;;;1.67;1.10;;;;;;;-145.68;41.74;71859.13;10210603;29;20223;-67
2023/07/30 14:35:17;;;;;;;2.47;1.25;;;;;;;-145.68;42.98;72008.97;10210510;29;20836;-68
2023/07/30 14:40:17;;;;;;;1.20;1.10;;;;;;;-145.68;43.58;71981.00;10210255;29;20216;-67
2023/07/30 14:45:18;;;;;;;1.38;1.00;;;;;;;-145.68;44.04;72016.97;10210530;29;20234;-67
2023/07/30 14:50:19;;;;;;;9.35;1.38;;;;;;;-145.68;44.79;72098.88;10210365;29;20326;-67
2023/07/30 14:55:19;;;;;;;3.30;1.30;;;;;;;-145.68;46.49;72158.84;10210026;29;20239;-68
2023/07/30 15:00:20;;;;;;;1.35;1.25;;;;;;;-145.68;48.27;72226.75;10210081;29;20215;-67
2023/07/30 15:05:20;;;;;;;2.38;1.30;;;;;;;-145.68;51.96;72256.75;10209804;29;20235;-67
2023/07/30 15:10:20;;;;;;;3.25;1.20;;;;;;;-145.68;59.33;72418.59;10210350;29;20279;-67
2023/07/30 15:15:21;;;;;;;3.80;1.15;;;;;;;-145.68;61.87;72476.53;10210508;29;20335;-66
2023/07/30 15:20:21;;;;;;;1.80;0.82;;;;;;;-145.68;61.20;72556.47;10209791;29;20212;-67
2023/07/30 15:25:22;;;;;;;4.22;1.23;;;;;;;-145.68;61.61;72614.44;10209755;29;20224;-67
2023/07/30 15:30:22;;;;;;;1.27;0.80;;;;;;;-145.68;61.19;72580.47;10209665;29;20224;-67
2023/07/30 15:35:23;;;;;;;1.30;1.20;;;;;;;-145.68;61.33;72588.44;10210447;29;20722;-67
2023/07/30 15:40:23;;;;;;;2.58;1.17;;;;;;;-145.68;64.97;72622.41;10216810;29;20259;-67
2023/07/30 15:45:24;;;;;;;3.08;1.15;;;;;;;-145.68;66.55;72608.44;10216310;29;20275;-67
2023/07/30 15:50:26;;;;;;;1.27;1.17;;;;;;;-145.68;65.10;72610.44;10216432;29;20219;-67
2023/07/30 15:55:26;;;;;;;1.10;1.00;;;;;;;-145.68;63.35;72544.50;10216330;29;20249;-66
2023/07/30 16:00:27;;;;;;;1.67;1.10;;;;;;;-145.68;57.21;72380.63;10218298;29;20627;-67
2023/07/30 16:05:27;;;;;;;4.10;1.40;;;;;;;-145.68;58.15;72520.50;10215871;29;20263;-66
2023/07/30 16:10:27;;;;;;;1.67;1.15;;;;;;;-145.68;59.50;72524.50;10215589;29;20282;-66
2023/07/30 16:15:28;;;;;;;1.25;1.15;;;;;;;-145.68;59.02;72514.50;10215254;29;20239;-66
2023/07/30 16:20:28;;;;;;;1.70;1.50;;;;;;;-145.68;60.10;72580.47;10215112;29;20214;-66
2023/07/30 16:25:28;;;;;;;1.90;1.60;;;;;;;-145.68;61.83;72548.47;10215202;29;20721;-66
2023/07/30 16:30:29;;;;;;;5.38;1.30;;;;;;;-145.68;61.19;72510.50;10215023;29;20734;-67
2023/07/30 16:35:29;;;;;;;1.85;1.30;;;;;;;-145.68;62.41;72570.47;10214414;29;20737;-66
2023/07/30 16:40:30;;;;;;;3.10;1.05;;;;;;;-145.68;64.33;72596.44;10214644;29;20674;-67
2023/07/30 16:45:30;;;;;;;1.90;1.00;;;;;;;-145.68;62.32;72680.38;10213945;29;20238;-67
2023/07/30 16:50:31;;;;;;;3.33;0.80;;;;;;;-145.68;63.49;72720.34;10213520;29;20215;-66
2023/07/30 16:55:32;;;;;;;0.57;0.57;;;;;;;-145.68;65.19;72750.31;10257613;23;20235;-64
2023/07/30 17:00:32;;;;;;;0.88;0.77;;;;;;;-145.68;64.00;72752.31;10253015;29;20214;-65
2023/07/30 17:05:33;;;;;;;0.60;0.60;;;;;;;-145.68;64.38;72780.28;10220722;29;20639;-65
2023/07/30 17:10:36;;;;;;;1.92;1.13;;;;;;;-145.68;65.41;72822.25;10213072;29;20203;-64
2023/07/30 17:15:37;;;;;;;0.98;0.82;;;;;;;-145.68;65.36;72826.25;10212916;29;20228;-65
2023/07/30 17:20:37;;;;;;;1.27;1.05;;;;;;;-145.68;64.28;72840.25;10212867;29;20222;-65
2023/07/30 17:25:37;;;;;;;2.85;1.10;;;;;;;-145.68;65.43;72898.19;10212491;29;20237;-65
2023/07/30 17:30:38;;;;;;;4.35;1.40;;;;;;;-145.68;64.42;72944.16;10212554;29;20561;-65
2023/07/30 17:35:39;;;;;;;2.25;1.33;;;;;;;-145.68;62.12;72886.22;10211846;29;20242;-64
2023/07/30 17:40:39;;;;;;;4.00;1.45;;;;;;;-145.68;61.40;72920.19;10212297;29;20220;-64
2023/07/30 17:45:39;;;;;;;2.75;1.45;;;;;;;-145.68;59.87;72942.16;10211580;29;20231;-64
2023/07/30 17:50:40;;;;;;;2.92;1.30;;;;;;;-145.68;57.93;72912.19;10211795;29;20250;-65
2023/07/30 17:55:42;;;;;;;4.03;1.40;;;;;;;-145.68;58.03;72938.16;10211396;29;20236;-65
2023/07/30 18:00:43;;;;;;;2.40;1.30;;;;;;;-145.68;56.99;72950.16;10210537;29;20223;-64
2023/07/30 18:05:46;;;;;;;3.78;1.60;;;;;;;-145.68;58.32;72986.13;10211472;29;20239;-64
2023/07/30 18:10:46;;;;;;;5.18;1.67;;;;;;;-145.68;58.30;72984.13;10210977;29;20682;-64
2023/07/30 18:15:46;;;;;;;2.50;1.40;;;;;;;-145.68;59.44;72984.13;10210874;29;20231;-65
2023/07/30 18:20:47;;;;;;;2.90;1.35;;;;;;;-145.68;59.39;73050.09;10210959;29;20216;-65
2023/07/30 18:25:47;;;;;;;4.35;1.60;;;;;;;-145.68;60.33;73046.09;10210609;29;20224;-65
2023/07/30 18:30:47;;;;;;;3.25;1.85;;;;;;;-145.68;60.88;73068.06;10210674;29;20287;-65
2023/07/30 18:35:48;;;;;;;2.58;1.40;;;;;;;-145.68;61.18;73084.06;10210344;29;20333;-64
2023/07/30 18:40:48;;;;;;;2.00;1.50;;;;;;;-145.68;62.01;73104.06;10210514;29;20214;-66
2023/07/30 18:45:49;;;;;;;1.42;1.33;;;;;;;-145.68;62.74;73100.06;10210343;29;20223;-65
2023/07/30 18:50:50;;;;;;;2.15;1.50;;;;;;;-145.68;63.17;73130.03;10210411;29;20208;-65
2023/07/30 18:55:51;;;;;;;3.67;1.73;;;;;;;-145.68;63.86;73148.03;10210118;29;20710;-65
2023/07/30 19:00:51;;;;;;;3.95;1.77;;;;;;;-145.68;64.70;73170.00;10210226;29;20250;-65
2023/07/30 19:05:56;;;;;;;5.07;1.70;;;;;;;-145.68;65.93;73196.00;10209952;29;20351;-65
2023/07/30 19:10:56;;;;;;;3.00;1.55;;;;;;;-145.68;66.36;73213.97;10212069;29;20271;-65
2023/07/30 19:15:57;;;;;;;2.50;1.52;;;;;;;-145.68;68.41;73249.94;10217362;29;20232;-65
2023/07/30 19:20:57;;;;;;;4.50;2.00;;;;;;;-145.68;69.27;73269.94;10217407;29;20718;-66
2023/07/30 19:25:58;;;;;;;4.85;2.25;;;;;;;-145.68;70.75;73283.94;10217004;29;20232;-64
2023/07/30 19:30:58;;;;;;;3.58;2.00;;;;;;;-145.68;71.08;73293.94;10217085;29;20208;-64
2023/07/30 19:35:58;;;;;;;4.45;1.80;;;;;;;-145.68;72.77;73313.91;10216808;29;20291;-64
2023/07/30 19:41:00;;;;;;;6.80;2.25;;;;;;;-145.68;75.08;73369.88;10216610;29;20708;-64
2023/07/30 19:46:01;;;;;;;5.35;2.17;;;;;;;-145.68;77.78;73403.84;10216543;29;20283;-64
2023/07/30 19:51:01;;;;;;;5.03;2.10;;;;;;;-145.68;79.14;73413.84;10216444;29;20248;-65
2023/07/30 19:56:01;;;;;;;7.05;2.75;;;;;;;-145.68;76.93;73393.84;10215987;29;20254;-65
2023/07/30 20:01:02;;;;;;;6.03;2.28;;;;;;;-145.68;76.24;73379.88;10216032;29;20239;-65
2023/07/30 20:06:04;;;;;;;5.10;2.22;;;;;;;-145.68;75.95;73377.88;10215393;29;20244;-65
2023/07/30 20:11:06;;;;;;;4.25;2.38;;;;;;;-145.68;74.83;73369.88;10215619;29;20650;-65
2023/07/30 20:16:11;;;;;;;4.82;2.65;;;;;;;-145.68;76.12;73391.84;10215070;29;20710;-65
2023/07/30 20:21:11;;;;;;;5.78;2.20;;;;;;;-145.68;76.07;73375.88;10214786;29;20295;-65
2023/07/30 20:26:13;;;;;;;5.18;2.10;;;;;;;-145.68;74.48;73365.88;10214369;29;20594;-64
2023/07/30 20:31:13;;;;;;;8.30;2.75;;;;;;;-145.68;73.77;73357.88;10214780;29;20208;-65
2023/07/30 20:36:14;;;;;;;5.00;2.80;;;;;;;-145.68;71.64;73335.91;10214596;29;20246;-64
2023/07/30 20:41:14;;;;;;;7.45;2.00;;;;;;;-145.68;71.51;73337.91;10214455;29;20211;-65
2023/07/30 20:46:14;;;;;;;5.72;2.35;;;;;;;-145.68;70.36;73313.91;10214206;29;20236;-65
2023/07/30 20:51:15;;;;;;;4.82;1.85;;;;;;;-145.68;70.01;73315.91;10214266;29;20222;-65
2023/07/30 20:56:15;;;;;;;6.40;2.30;;;;;;;-145.68;68.42;73295.94;10213899;29;20244;-65
2023/07/30 21:01:15;;;;;;;3.65;1.88;;;;;;;-145.68;67.82;73277.94;10213956;29;20223;-66
2023/07/30 21:06:16;;;;;;;2.78;1.60;;;;;;;-145.68;67.79;73281.94;10213114;29;20666;-65
2023/07/30 21:11:16;;;;;;;5.53;2.38;;;;;;;-145.68;66.97;73277.94;10213479;29;20216;-65
2023/07/30 21:16:17;;;;;;;5.32;1.80;;;;;;;-145.68;65.75;73257.94;10212775;29;20306;-65
2023/07/30 21:21:17;;;;;;;6.35;1.92;;;;;;;-145.68;65.41;73255.94;10213041;29;20256;-65
2023/07/30 21:26:17;;;;;;;6.65;1.90;;;;;;;-145.68;64.42;73233.97;10212943;29;20644;-65
2023/07/30 21:31:18;;;;;;;7.88;2.10;;;;;;;-145.68;64.60;73241.97;10212333;29;20643;-65
2023/07/30 21:36:18;;;;;;;4.15;1.90;;;;;;;-145.68;64.16;73227.97;10212346;29;20228;-66
2023/07/30 21:41:18;;;;;;;5.22;1.98;;;;;;;-145.68;64.05;73219.97;10212070;29;20208;-65
2023/07/30 21:46:19;;;;;;;7.75;2.00;;;;;;;-145.68;64.18;73239.97;10211968;29;20726;-64
2023/07/30 21:51:19;;;;;;;4.30;1.90;;;;;;;-145.68;64.10;73235.97;10211893;29;20298;-65
2023/07/30 21:56:20;;;;;;;3.58;1.80;;;;;;;-145.68;63.51;73223.97;10211490;29;20287;-65
2023/07/30 22:01:20;;;;;;;4.70;1.67;;;;;;;-145.68;62.96;73213.97;10211896;29;20283;-66
2023/07/30 22:06:20;;;;;;;2.83;1.25;;;;;;;-145.68;62.72;73203.97;10211204;29;20231;-64
2023/07/30 22:11:21;;;;;;;2.78;1.50;;;;;;;-145.68;62.89;73219.97;10211516;29;20283;-66
2023/07/30 22:16:21;;;;;;;4.50;1.58;;;;;;;-145.68;62.99;73223.97;10210715;29;20267;-65
2023/07/30 22:21:21;;;;;;;5.68;1.55;;;;;;;-145.68;63.04;73229.97;10210811;29;20587;-65
2023/07/30 22:26:22;;;;;;;4.35;1.90;;;;;;;-145.68;62.70;73221.97;10210973;29;20668;-65
2023/07/30 22:31:22;;;;;;;4.55;1.60;;;;;;;-145.68;63.16;73235.97;10210578;29;20600;-65
2023/07/30 22:36:23;;;;;;;5.70;1.75;;;;;;;-145.68;63.21;73247.97;10210599;29;20239;-66
2023/07/30 22:41:23;;;;;;;3.63;1.77;;;;;;;-145.68;63.58;73247.97;10210597;29;20251;-65